sensor_id;sensor_type;location;lat;lon;timestamp;P1;durP1;ratioP1;P2;durP2;ratioP2
7571;SDS011;3827;49.928;8.548;2023-12-07T00:01:31;10.55;;;9.55;;
7571;SDS011;3827;49.928;8.548;2023-12-07T00:03:59;11.73;;;10.52;;
7571;SDS011;3827;49.928;8.548;2023-12-07T00:06:26;10.80;;;9.80;;
7571;SDS011;3827;49.928;8.548;2023-12-07T00:08:52;12.48;;;10.60;;
7571;SDS011;3827;49.928;8.548;2023-12-07T00:11:21;12.88;;;11.65;;
7571;SDS011;3827;49.928;8.548;2023-12-07T00:13:48;12.05;;;10.85;;
7571;SDS011;3827;49.928;8.548;2023-12-07T00:16:14;12.47;;;11.17;;
7571;SDS011;3827;49.928;8.548;2023-12-07T00:18:41;12.88;;;11.57;;
7571;SDS011;3827;49.928;8.548;2023-12-07T00:21:08;12.50;;;11.10;;
7571;SDS011;3827;49.928;8.548;2023-12-07T00:23:35;14.55;;;11.25;;
7571;SDS011;3827;49.928;8.548;2023-12-07T00:26:02;11.82;;;10.63;;
7571;SDS011;3827;49.928;8.548;2023-12-07T00:28:31;13.45;;;12.00;;
7571;SDS011;3827;49.928;8.548;2023-12-07T00:30:58;11.80;;;10.50;;
7571;SDS011;3827;49.928;8.548;2023-12-07T00:33:24;12.02;;;10.82;;
7571;SDS011;3827;49.928;8.548;2023-12-07T00:35:51;12.90;;;10.70;;
7571;SDS011;3827;49.928;8.548;2023-12-07T00:38:18;11.43;;;10.33;;
7571;SDS011;3827;49.928;8.548;2023-12-07T00:40:46;12.95;;;11.63;;
7571;SDS011;3827;49.928;8.548;2023-12-07T00:43:12;12.75;;;11.45;;
7571;SDS011;3827;49.928;8.548;2023-12-07T00:45:40;14.30;;;12.38;;
7571;SDS011;3827;49.928;8.548;2023-12-07T00:48:07;13.52;;;12.13;;
7571;SDS011;3827;49.928;8.548;2023-12-07T00:50:34;12.70;;;11.38;;
7571;SDS011;3827;49.928;8.548;2023-12-07T00:53:01;12.55;;;11.00;;
7571;SDS011;3827;49.928;8.548;2023-12-07T00:55:28;12.67;;;11.37;;
7571;SDS011;3827;49.928;8.548;2023-12-07T00:57:54;14.52;;;12.88;;
7571;SDS011;3827;49.928;8.548;2023-12-07T01:00:21;13.93;;;12.52;;
7571;SDS011;3827;49.928;8.548;2023-12-07T01:02:49;13.95;;;12.55;;
7571;SDS011;3827;49.928;8.548;2023-12-07T01:05:16;14.60;;;13.03;;
7571;SDS011;3827;49.928;8.548;2023-12-07T01:07:43;13.55;;;12.13;;
7571;SDS011;3827;49.928;8.548;2023-12-07T01:10:09;11.60;;;10.40;;
7571;SDS011;3827;49.928;8.548;2023-12-07T01:12:36;13.33;;;11.93;;
7571;SDS011;3827;49.928;8.548;2023-12-07T01:15:03;12.93;;;11.63;;
7571;SDS011;3827;49.928;8.548;2023-12-07T01:17:31;11.23;;;10.13;;
7571;SDS011;3827;49.928;8.548;2023-12-07T01:19:59;11.02;;;10.00;;
7571;SDS011;3827;49.928;8.548;2023-12-07T01:22:28;13.13;;;11.83;;
7571;SDS011;3827;49.928;8.548;2023-12-07T01:24:55;14.35;;;12.85;;
7571;SDS011;3827;49.928;8.548;2023-12-07T01:27:22;15.95;;;13.13;;
7571;SDS011;3827;49.928;8.548;2023-12-07T01:29:49;12.80;;;11.55;;
7571;SDS011;3827;49.928;8.548;2023-12-07T01:32:15;13.40;;;12.10;;
7571;SDS011;3827;49.928;8.548;2023-12-07T01:34:43;13.52;;;12.13;;
7571;SDS011;3827;49.928;8.548;2023-12-07T01:37:11;13.10;;;11.80;;
7571;SDS011;3827;49.928;8.548;2023-12-07T01:39:38;14.63;;;13.13;;
7571;SDS011;3827;49.928;8.548;2023-12-07T01:42:04;15.03;;;13.43;;
7571;SDS011;3827;49.928;8.548;2023-12-07T01:44:31;15.10;;;13.50;;
7571;SDS011;3827;49.928;8.548;2023-12-07T01:46:58;14.57;;;12.95;;
7571;SDS011;3827;49.928;8.548;2023-12-07T01:49:25;12.73;;;11.43;;
7571;SDS011;3827;49.928;8.548;2023-12-07T01:51:52;13.37;;;12.00;;
7571;SDS011;3827;49.928;8.548;2023-12-07T01:54:20;14.07;;;12.52;;
7571;SDS011;3827;49.928;8.548;2023-12-07T01:56:47;14.85;;;12.88;;
7571;SDS011;3827;49.928;8.548;2023-12-07T01:59:14;13.48;;;12.15;;
7571;SDS011;3827;49.928;8.548;2023-12-07T02:01:41;14.10;;;12.60;;
7571;SDS011;3827;49.928;8.548;2023-12-07T02:04:09;15.93;;;14.25;;
7571;SDS011;3827;49.928;8.548;2023-12-07T02:06:35;14.38;;;12.95;;
7571;SDS011;3827;49.928;8.548;2023-12-07T02:09:02;13.85;;;12.40;;
7571;SDS011;3827;49.928;8.548;2023-12-07T02:11:30;15.10;;;13.50;;
7571;SDS011;3827;49.928;8.548;2023-12-07T02:13:57;15.23;;;13.63;;
7571;SDS011;3827;49.928;8.548;2023-12-07T02:16:25;16.42;;;14.15;;
7571;SDS011;3827;49.928;8.548;2023-12-07T02:18:57;16.73;;;14.93;;
7571;SDS011;3827;49.928;8.548;2023-12-07T02:21:34;14.93;;;13.33;;
7571;SDS011;3827;49.928;8.548;2023-12-07T02:24:06;15.18;;;13.57;;
7571;SDS011;3827;49.928;8.548;2023-12-07T02:26:36;16.42;;;14.48;;
7571;SDS011;3827;49.928;8.548;2023-12-07T02:29:04;16.02;;;14.20;;
7571;SDS011;3827;49.928;8.548;2023-12-07T02:31:31;15.70;;;14.00;;
7571;SDS011;3827;49.928;8.548;2023-12-07T02:33:58;16.65;;;14.88;;
7571;SDS011;3827;49.928;8.548;2023-12-07T02:36:26;15.40;;;13.63;;
7571;SDS011;3827;49.928;8.548;2023-12-07T02:38:55;17.00;;;15.15;;
7571;SDS011;3827;49.928;8.548;2023-12-07T02:41:26;16.70;;;14.75;;
7571;SDS011;3827;49.928;8.548;2023-12-07T02:43:55;13.55;;;12.23;;
7571;SDS011;3827;49.928;8.548;2023-12-07T02:46:22;17.40;;;15.33;;
7571;SDS011;3827;49.928;8.548;2023-12-07T02:48:49;17.92;;;15.68;;
7571;SDS011;3827;49.928;8.548;2023-12-07T02:51:16;18.13;;;15.87;;
7571;SDS011;3827;49.928;8.548;2023-12-07T02:53:43;16.77;;;14.85;;
7571;SDS011;3827;49.928;8.548;2023-12-07T02:56:09;17.90;;;15.00;;
7571;SDS011;3827;49.928;8.548;2023-12-07T02:58:36;17.75;;;14.75;;
7571;SDS011;3827;49.928;8.548;2023-12-07T03:01:05;16.83;;;15.02;;
7571;SDS011;3827;49.928;8.548;2023-12-07T03:03:33;16.77;;;14.82;;
7571;SDS011;3827;49.928;8.548;2023-12-07T03:06:00;17.40;;;15.48;;
7571;SDS011;3827;49.928;8.548;2023-12-07T03:08:26;17.25;;;15.40;;
7571;SDS011;3827;49.928;8.548;2023-12-07T03:10:53;16.52;;;14.50;;
7571;SDS011;3827;49.928;8.548;2023-12-07T03:13:20;16.65;;;14.55;;
7571;SDS011;3827;49.928;8.548;2023-12-07T03:15:47;15.32;;;13.68;;
7571;SDS011;3827;49.928;8.548;2023-12-07T03:18:15;16.52;;;14.73;;
7571;SDS011;3827;49.928;8.548;2023-12-07T03:20:42;17.50;;;15.57;;
7571;SDS011;3827;49.928;8.548;2023-12-07T03:23:09;17.55;;;15.32;;
7571;SDS011;3827;49.928;8.548;2023-12-07T03:25:35;16.20;;;14.48;;
7571;SDS011;3827;49.928;8.548;2023-12-07T03:28:02;18.10;;;15.97;;
7571;SDS011;3827;49.928;8.548;2023-12-07T03:30:29;16.95;;;15.18;;
7571;SDS011;3827;49.928;8.548;2023-12-07T03:32:56;16.75;;;15.02;;
7571;SDS011;3827;49.928;8.548;2023-12-07T03:35:24;18.55;;;15.88;;
7571;SDS011;3827;49.928;8.548;2023-12-07T03:37:51;17.38;;;15.50;;
7571;SDS011;3827;49.928;8.548;2023-12-07T03:40:17;17.00;;;15.20;;
7571;SDS011;3827;49.928;8.548;2023-12-07T03:42:44;16.15;;;14.45;;
7571;SDS011;3827;49.928;8.548;2023-12-07T03:45:11;16.05;;;14.43;;
7571;SDS011;3827;49.928;8.548;2023-12-07T03:47:38;16.87;;;14.90;;
7571;SDS011;3827;49.928;8.548;2023-12-07T03:50:05;17.08;;;15.20;;
7571;SDS011;3827;49.928;8.548;2023-12-07T03:52:33;17.48;;;15.27;;
7571;SDS011;3827;49.928;8.548;2023-12-07T03:55:00;17.58;;;15.65;;
7571;SDS011;3827;49.928;8.548;2023-12-07T03:57:27;17.60;;;15.80;;
7571;SDS011;3827;49.928;8.548;2023-12-07T03:59:54;17.75;;;15.85;;
7571;SDS011;3827;49.928;8.548;2023-12-07T04:02:21;18.63;;;15.52;;
7571;SDS011;3827;49.928;8.548;2023-12-07T04:04:47;15.48;;;13.88;;
7571;SDS011;3827;49.928;8.548;2023-12-07T04:07:14;18.48;;;15.93;;
7571;SDS011;3827;49.928;8.548;2023-12-07T04:09:43;18.85;;;15.63;;
7571;SDS011;3827;49.928;8.548;2023-12-07T04:12:10;16.48;;;14.77;;
7571;SDS011;3827;49.928;8.548;2023-12-07T04:14:36;16.73;;;14.68;;
7571;SDS011;3827;49.928;8.548;2023-12-07T04:17:03;16.55;;;14.75;;
7571;SDS011;3827;49.928;8.548;2023-12-07T04:19:30;17.13;;;15.25;;
7571;SDS011;3827;49.928;8.548;2023-12-07T04:21:57;18.52;;;16.08;;
7571;SDS011;3827;49.928;8.548;2023-12-07T04:24:23;16.52;;;14.50;;
7571;SDS011;3827;49.928;8.548;2023-12-07T04:26:51;16.95;;;15.15;;
7571;SDS011;3827;49.928;8.548;2023-12-07T04:29:18;21.15;;;17.63;;
7571;SDS011;3827;49.928;8.548;2023-12-07T04:31:45;17.33;;;15.18;;
7571;SDS011;3827;49.928;8.548;2023-12-07T04:34:12;19.63;;;16.77;;
7571;SDS011;3827;49.928;8.548;2023-12-07T04:36:38;18.23;;;16.03;;
7571;SDS011;3827;49.928;8.548;2023-12-07T04:39:05;16.83;;;15.05;;
7571;SDS011;3827;49.928;8.548;2023-12-07T04:41:33;19.35;;;17.15;;
7571;SDS011;3827;49.928;8.548;2023-12-07T04:44:01;18.23;;;16.00;;
7571;SDS011;3827;49.928;8.548;2023-12-07T04:46:28;18.02;;;16.13;;
7571;SDS011;3827;49.928;8.548;2023-12-07T04:48:54;18.48;;;16.48;;
7571;SDS011;3827;49.928;8.548;2023-12-07T04:51:21;19.23;;;16.10;;
7571;SDS011;3827;49.928;8.548;2023-12-07T04:53:47;18.10;;;16.20;;
7571;SDS011;3827;49.928;8.548;2023-12-07T04:56:14;18.67;;;16.42;;
7571;SDS011;3827;49.928;8.548;2023-12-07T04:58:40;18.07;;;16.17;;
7571;SDS011;3827;49.928;8.548;2023-12-07T05:01:08;19.98;;;17.23;;
7571;SDS011;3827;49.928;8.548;2023-12-07T05:03:35;21.73;;;17.17;;
7571;SDS011;3827;49.928;8.548;2023-12-07T05:06:02;21.02;;;17.75;;
7571;SDS011;3827;49.928;8.548;2023-12-07T05:08:38;20.40;;;17.55;;
7571;SDS011;3827;49.928;8.548;2023-12-07T05:11:11;20.98;;;17.48;;
7571;SDS011;3827;49.928;8.548;2023-12-07T05:13:37;19.35;;;16.63;;
7571;SDS011;3827;49.928;8.548;2023-12-07T05:16:04;18.42;;;16.40;;
7571;SDS011;3827;49.928;8.548;2023-12-07T05:18:33;19.30;;;17.05;;
7571;SDS011;3827;49.928;8.548;2023-12-07T05:20:59;16.23;;;14.53;;
7571;SDS011;3827;49.928;8.548;2023-12-07T05:23:32;19.10;;;16.55;;
7571;SDS011;3827;49.928;8.548;2023-12-07T05:26:04;19.08;;;16.60;;
7571;SDS011;3827;49.928;8.548;2023-12-07T05:28:33;18.55;;;16.58;;
7571;SDS011;3827;49.928;8.548;2023-12-07T05:30:59;16.30;;;14.60;;
7571;SDS011;3827;49.928;8.548;2023-12-07T05:33:26;19.15;;;15.98;;
7571;SDS011;3827;49.928;8.548;2023-12-07T05:35:54;22.45;;;18.75;;
7571;SDS011;3827;49.928;8.548;2023-12-07T05:38:21;22.95;;;19.48;;
7571;SDS011;3827;49.928;8.548;2023-12-07T05:40:48;20.20;;;17.95;;
7571;SDS011;3827;49.928;8.548;2023-12-07T05:43:14;20.83;;;17.40;;
7571;SDS011;3827;49.928;8.548;2023-12-07T05:45:41;21.20;;;18.20;;
7571;SDS011;3827;49.928;8.548;2023-12-07T05:48:08;20.80;;;18.45;;
7571;SDS011;3827;49.928;8.548;2023-12-07T05:50:36;19.73;;;17.60;;
7571;SDS011;3827;49.928;8.548;2023-12-07T05:53:05;20.85;;;18.65;;
7571;SDS011;3827;49.928;8.548;2023-12-07T05:55:32;23.02;;;18.42;;
7571;SDS011;3827;49.928;8.548;2023-12-07T05:57:59;21.75;;;18.23;;
7571;SDS011;3827;49.928;8.548;2023-12-07T06:00:26;20.83;;;17.58;;
7571;SDS011;3827;49.928;8.548;2023-12-07T06:02:52;22.30;;;18.67;;
7571;SDS011;3827;49.928;8.548;2023-12-07T06:05:19;21.77;;;18.07;;
7571;SDS011;3827;49.928;8.548;2023-12-07T06:07:46;23.02;;;18.15;;
7571;SDS011;3827;49.928;8.548;2023-12-07T06:10:14;20.02;;;17.83;;
7571;SDS011;3827;49.928;8.548;2023-12-07T06:12:41;21.25;;;18.17;;
7571;SDS011;3827;49.928;8.548;2023-12-07T06:15:08;21.20;;;18.13;;
7571;SDS011;3827;49.928;8.548;2023-12-07T06:17:36;21.70;;;18.20;;
7571;SDS011;3827;49.928;8.548;2023-12-07T06:20:03;22.95;;;17.65;;
7571;SDS011;3827;49.928;8.548;2023-12-07T06:22:30;20.88;;;18.20;;
7571;SDS011;3827;49.928;8.548;2023-12-07T06:24:57;20.30;;;17.80;;
7571;SDS011;3827;49.928;8.548;2023-12-07T06:27:25;20.75;;;17.08;;
7571;SDS011;3827;49.928;8.548;2023-12-07T06:29:52;22.52;;;18.65;;
7571;SDS011;3827;49.928;8.548;2023-12-07T06:32:18;23.55;;;18.63;;
7571;SDS011;3827;49.928;8.548;2023-12-07T06:34:45;22.60;;;18.50;;
7571;SDS011;3827;49.928;8.548;2023-12-07T06:37:12;20.90;;;17.60;;
7571;SDS011;3827;49.928;8.548;2023-12-07T06:39:39;21.75;;;18.02;;
7571;SDS011;3827;49.928;8.548;2023-12-07T06:42:06;20.98;;;18.15;;
7571;SDS011;3827;49.928;8.548;2023-12-07T06:44:34;23.13;;;19.27;;
7571;SDS011;3827;49.928;8.548;2023-12-07T06:47:01;22.20;;;19.38;;
7571;SDS011;3827;49.928;8.548;2023-12-07T06:49:29;23.23;;;18.63;;
7571;SDS011;3827;49.928;8.548;2023-12-07T06:51:56;20.85;;;17.75;;
7571;SDS011;3827;49.928;8.548;2023-12-07T06:54:23;20.23;;;17.63;;
7571;SDS011;3827;49.928;8.548;2023-12-07T06:56:49;21.40;;;18.27;;
7571;SDS011;3827;49.928;8.548;2023-12-07T06:59:17;21.67;;;18.60;;
7571;SDS011;3827;49.928;8.548;2023-12-07T07:01:45;21.95;;;17.73;;
7571;SDS011;3827;49.928;8.548;2023-12-07T07:04:12;17.83;;;15.93;;
7571;SDS011;3827;49.928;8.548;2023-12-07T07:06:39;22.02;;;17.77;;
7571;SDS011;3827;49.928;8.548;2023-12-07T07:09:07;22.38;;;19.13;;
7571;SDS011;3827;49.928;8.548;2023-12-07T07:11:33;22.57;;;18.57;;
7571;SDS011;3827;49.928;8.548;2023-12-07T07:14:02;23.30;;;18.27;;
7571;SDS011;3827;49.928;8.548;2023-12-07T07:16:29;23.23;;;18.17;;
7571;SDS011;3827;49.928;8.548;2023-12-07T07:18:57;22.05;;;18.40;;
7571;SDS011;3827;49.928;8.548;2023-12-07T07:21:24;23.23;;;19.23;;
7571;SDS011;3827;49.928;8.548;2023-12-07T07:23:51;23.77;;;19.70;;
7571;SDS011;3827;49.928;8.548;2023-12-07T07:26:18;20.98;;;17.90;;
7571;SDS011;3827;49.928;8.548;2023-12-07T07:28:44;23.70;;;18.65;;
7571;SDS011;3827;49.928;8.548;2023-12-07T07:31:11;27.48;;;20.52;;
7571;SDS011;3827;49.928;8.548;2023-12-07T07:33:38;27.85;;;20.90;;
7571;SDS011;3827;49.928;8.548;2023-12-07T07:36:06;23.80;;;20.15;;
7571;SDS011;3827;49.928;8.548;2023-12-07T07:38:33;20.92;;;18.73;;
7571;SDS011;3827;49.928;8.548;2023-12-07T07:41:00;22.85;;;19.45;;
7571;SDS011;3827;49.928;8.548;2023-12-07T07:43:27;23.63;;;19.48;;
7571;SDS011;3827;49.928;8.548;2023-12-07T07:45:54;26.75;;;21.02;;
7571;SDS011;3827;49.928;8.548;2023-12-07T07:48:21;36.20;;;29.88;;
7571;SDS011;3827;49.928;8.548;2023-12-07T07:50:47;29.60;;;25.33;;
7571;SDS011;3827;49.928;8.548;2023-12-07T07:53:15;26.58;;;20.45;;
7571;SDS011;3827;49.928;8.548;2023-12-07T07:55:42;27.60;;;20.25;;
7571;SDS011;3827;49.928;8.548;2023-12-07T07:58:09;26.60;;;21.38;;
7571;SDS011;3827;49.928;8.548;2023-12-07T08:00:36;27.77;;;21.35;;
7571;SDS011;3827;49.928;8.548;2023-12-07T08:03:02;28.02;;;21.77;;
7571;SDS011;3827;49.928;8.548;2023-12-07T08:05:30;29.10;;;21.90;;
7571;SDS011;3827;49.928;8.548;2023-12-07T08:07:57;26.58;;;20.35;;
7571;SDS011;3827;49.928;8.548;2023-12-07T08:10:25;26.13;;;20.20;;
7571;SDS011;3827;49.928;8.548;2023-12-07T08:12:51;23.48;;;19.45;;
7571;SDS011;3827;49.928;8.548;2023-12-07T08:15:18;26.02;;;20.35;;
7571;SDS011;3827;49.928;8.548;2023-12-07T08:17:46;29.13;;;20.97;;
7571;SDS011;3827;49.928;8.548;2023-12-07T08:20:13;29.98;;;23.33;;
7571;SDS011;3827;49.928;8.548;2023-12-07T08:22:40;32.55;;;23.23;;
7571;SDS011;3827;49.928;8.548;2023-12-07T08:25:07;33.33;;;23.25;;
7571;SDS011;3827;49.928;8.548;2023-12-07T08:27:36;31.60;;;23.23;;
7571;SDS011;3827;49.928;8.548;2023-12-07T08:30:03;33.00;;;22.33;;
7571;SDS011;3827;49.928;8.548;2023-12-07T08:32:31;28.43;;;21.70;;
7571;SDS011;3827;49.928;8.548;2023-12-07T08:34:58;30.23;;;21.23;;
7571;SDS011;3827;49.928;8.548;2023-12-07T08:37:24;30.10;;;21.95;;
7571;SDS011;3827;49.928;8.548;2023-12-07T08:39:51;40.90;;;31.30;;
7571;SDS011;3827;49.928;8.548;2023-12-07T08:42:18;47.72;;;36.20;;
7571;SDS011;3827;49.928;8.548;2023-12-07T08:44:46;40.60;;;32.57;;
7571;SDS011;3827;49.928;8.548;2023-12-07T08:47:13;37.03;;;28.90;;
7571;SDS011;3827;49.928;8.548;2023-12-07T08:49:39;34.95;;;28.75;;
7571;SDS011;3827;49.928;8.548;2023-12-07T08:52:06;32.22;;;25.50;;
7571;SDS011;3827;49.928;8.548;2023-12-07T08:54:33;29.70;;;23.55;;
7571;SDS011;3827;49.928;8.548;2023-12-07T08:57:01;28.48;;;22.70;;
7571;SDS011;3827;49.928;8.548;2023-12-07T08:59:28;30.13;;;23.00;;
7571;SDS011;3827;49.928;8.548;2023-12-07T09:01:56;30.52;;;22.67;;
7571;SDS011;3827;49.928;8.548;2023-12-07T09:04:23;33.30;;;23.48;;
7571;SDS011;3827;49.928;8.548;2023-12-07T09:06:50;35.45;;;23.38;;
7571;SDS011;3827;49.928;8.548;2023-12-07T09:09:17;52.42;;;21.92;;
7571;SDS011;3827;49.928;8.548;2023-12-07T09:11:43;53.33;;;21.27;;
7571;SDS011;3827;49.928;8.548;2023-12-07T09:14:10;33.53;;;22.23;;
7571;SDS011;3827;49.928;8.548;2023-12-07T09:16:42;36.13;;;23.70;;
7571;SDS011;3827;49.928;8.548;2023-12-07T09:19:11;36.25;;;24.83;;
7571;SDS011;3827;49.928;8.548;2023-12-07T09:21:38;31.80;;;23.90;;
7571;SDS011;3827;49.928;8.548;2023-12-07T09:24:05;29.38;;;24.05;;
7571;SDS011;3827;49.928;8.548;2023-12-07T09:26:32;32.53;;;24.25;;
7571;SDS011;3827;49.928;8.548;2023-12-07T09:29:00;34.40;;;26.08;;
7571;SDS011;3827;49.928;8.548;2023-12-07T09:31:26;32.03;;;26.15;;
7571;SDS011;3827;49.928;8.548;2023-12-07T09:33:53;32.57;;;24.97;;
7571;SDS011;3827;49.928;8.548;2023-12-07T09:36:22;36.22;;;26.63;;
7571;SDS011;3827;49.928;8.548;2023-12-07T09:38:52;34.28;;;24.92;;
7571;SDS011;3827;49.928;8.548;2023-12-07T09:41:18;32.05;;;23.80;;
7571;SDS011;3827;49.928;8.548;2023-12-07T09:43:46;32.63;;;25.43;;
7571;SDS011;3827;49.928;8.548;2023-12-07T09:46:13;27.85;;;22.38;;
7571;SDS011;3827;49.928;8.548;2023-12-07T09:48:42;27.20;;;22.10;;
7571;SDS011;3827;49.928;8.548;2023-12-07T09:51:09;27.58;;;23.08;;
7571;SDS011;3827;49.928;8.548;2023-12-07T09:53:38;28.45;;;22.73;;
7571;SDS011;3827;49.928;8.548;2023-12-07T09:56:08;39.22;;;20.90;;
7571;SDS011;3827;49.928;8.548;2023-12-07T09:58:35;33.78;;;19.88;;
7571;SDS011;3827;49.928;8.548;2023-12-07T10:01:02;27.75;;;18.42;;
7571;SDS011;3827;49.928;8.548;2023-12-07T10:03:30;35.75;;;17.58;;
7571;SDS011;3827;49.928;8.548;2023-12-07T10:05:57;52.40;;;18.10;;
7571;SDS011;3827;49.928;8.548;2023-12-07T10:08:25;39.90;;;18.60;;
7571;SDS011;3827;49.928;8.548;2023-12-07T10:11:02;49.50;;;18.48;;
7571;SDS011;3827;49.928;8.548;2023-12-07T10:13:30;55.55;;;21.63;;
7571;SDS011;3827;49.928;8.548;2023-12-07T10:16:10;41.03;;;21.17;;
7571;SDS011;3827;49.928;8.548;2023-12-07T10:18:39;49.85;;;22.75;;
7571;SDS011;3827;49.928;8.548;2023-12-07T10:21:06;42.17;;;23.67;;
7571;SDS011;3827;49.928;8.548;2023-12-07T10:23:35;29.38;;;22.17;;
7571;SDS011;3827;49.928;8.548;2023-12-07T10:26:05;39.90;;;23.77;;
7571;SDS011;3827;49.928;8.548;2023-12-07T10:28:33;34.85;;;22.42;;
7571;SDS011;3827;49.928;8.548;2023-12-07T10:31:01;26.60;;;20.93;;
7571;SDS011;3827;49.928;8.548;2023-12-07T10:33:28;33.58;;;22.98;;
7571;SDS011;3827;49.928;8.548;2023-12-07T10:35:55;26.30;;;21.00;;
7571;SDS011;3827;49.928;8.548;2023-12-07T10:38:22;29.20;;;22.05;;
7571;SDS011;3827;49.928;8.548;2023-12-07T10:40:49;24.87;;;20.57;;
7571;SDS011;3827;49.928;8.548;2023-12-07T10:43:23;27.02;;;21.25;;
7571;SDS011;3827;49.928;8.548;2023-12-07T10:45:50;26.20;;;20.83;;
7571;SDS011;3827;49.928;8.548;2023-12-07T10:48:18;28.87;;;20.50;;
7571;SDS011;3827;49.928;8.548;2023-12-07T10:50:46;34.35;;;20.85;;
7571;SDS011;3827;49.928;8.548;2023-12-07T10:53:19;31.17;;;21.08;;
7571;SDS011;3827;49.928;8.548;2023-12-07T10:55:55;34.42;;;21.48;;
7571;SDS011;3827;49.928;8.548;2023-12-07T10:58:24;36.75;;;20.83;;
7571;SDS011;3827;49.928;8.548;2023-12-07T11:00:53;35.90;;;21.40;;
7571;SDS011;3827;49.928;8.548;2023-12-07T11:03:20;33.42;;;21.38;;
7571;SDS011;3827;49.928;8.548;2023-12-07T11:05:47;34.08;;;22.00;;
7571;SDS011;3827;49.928;8.548;2023-12-07T11:08:15;29.00;;;21.42;;
7571;SDS011;3827;49.928;8.548;2023-12-07T11:10:48;36.53;;;21.35;;
7571;SDS011;3827;49.928;8.548;2023-12-07T11:13:27;33.95;;;21.35;;
7571;SDS011;3827;49.928;8.548;2023-12-07T11:15:55;30.27;;;20.95;;
7571;SDS011;3827;49.928;8.548;2023-12-07T11:18:24;27.65;;;20.58;;
7571;SDS011;3827;49.928;8.548;2023-12-07T11:20:52;28.77;;;20.75;;
7571;SDS011;3827;49.928;8.548;2023-12-07T11:23:20;25.00;;;19.25;;
7571;SDS011;3827;49.928;8.548;2023-12-07T11:25:47;28.05;;;20.52;;
7571;SDS011;3827;49.928;8.548;2023-12-07T11:28:15;30.73;;;20.83;;
7571;SDS011;3827;49.928;8.548;2023-12-07T11:30:44;25.95;;;20.17;;
7571;SDS011;3827;49.928;8.548;2023-12-07T11:33:12;28.02;;;21.30;;
7571;SDS011;3827;49.928;8.548;2023-12-07T11:38:37;28.55;;;21.30;;
7571;SDS011;3827;49.928;8.548;2023-12-07T11:41:04;28.13;;;21.50;;
7571;SDS011;3827;49.928;8.548;2023-12-07T11:43:40;25.33;;;19.75;;
7571;SDS011;3827;49.928;8.548;2023-12-07T11:46:12;26.60;;;21.98;;
7571;SDS011;3827;49.928;8.548;2023-12-07T11:48:45;25.60;;;20.13;;
7571;SDS011;3827;49.928;8.548;2023-12-07T11:51:13;26.77;;;20.45;;
7571;SDS011;3827;49.928;8.548;2023-12-07T11:53:41;27.42;;;19.92;;
7571;SDS011;3827;49.928;8.548;2023-12-07T11:56:08;28.70;;;19.88;;
7571;SDS011;3827;49.928;8.548;2023-12-07T11:58:36;29.80;;;19.63;;
7571;SDS011;3827;49.928;8.548;2023-12-07T12:01:03;24.77;;;18.02;;
7571;SDS011;3827;49.928;8.548;2023-12-07T12:03:33;23.13;;;16.98;;
7571;SDS011;3827;49.928;8.548;2023-12-07T12:06:04;25.97;;;18.70;;
7571;SDS011;3827;49.928;8.548;2023-12-07T12:08:33;27.45;;;18.35;;
7571;SDS011;3827;49.928;8.548;2023-12-07T12:11:00;25.40;;;18.40;;
7571;SDS011;3827;49.928;8.548;2023-12-07T12:13:27;21.25;;;15.77;;
7571;SDS011;3827;49.928;8.548;2023-12-07T12:15:54;24.58;;;17.58;;
7571;SDS011;3827;49.928;8.548;2023-12-07T12:18:22;19.73;;;15.77;;
7571;SDS011;3827;49.928;8.548;2023-12-07T12:20:52;18.92;;;15.70;;
7571;SDS011;3827;49.928;8.548;2023-12-07T12:23:19;18.58;;;15.38;;
7571;SDS011;3827;49.928;8.548;2023-12-07T12:25:46;18.60;;;15.32;;
7571;SDS011;3827;49.928;8.548;2023-12-07T12:28:14;20.67;;;16.67;;
7571;SDS011;3827;49.928;8.548;2023-12-07T12:30:44;21.15;;;16.92;;
7571;SDS011;3827;49.928;8.548;2023-12-07T12:33:12;21.38;;;17.27;;
7571;SDS011;3827;49.928;8.548;2023-12-07T12:35:39;23.43;;;18.80;;
7571;SDS011;3827;49.928;8.548;2023-12-07T12:38:10;22.50;;;17.35;;
7571;SDS011;3827;49.928;8.548;2023-12-07T12:40:37;21.70;;;17.63;;
7571;SDS011;3827;49.928;8.548;2023-12-07T12:43:04;24.27;;;18.63;;
7571;SDS011;3827;49.928;8.548;2023-12-07T12:45:31;23.77;;;18.83;;
7571;SDS011;3827;49.928;8.548;2023-12-07T12:47:59;24.30;;;18.90;;
7571;SDS011;3827;49.928;8.548;2023-12-07T12:50:33;27.55;;;20.40;;
7571;SDS011;3827;49.928;8.548;2023-12-07T12:53:02;26.15;;;18.98;;
7571;SDS011;3827;49.928;8.548;2023-12-07T12:55:32;28.00;;;18.90;;
7571;SDS011;3827;49.928;8.548;2023-12-07T12:58:00;29.02;;;21.10;;
7571;SDS011;3827;49.928;8.548;2023-12-07T13:00:28;25.75;;;20.20;;
7571;SDS011;3827;49.928;8.548;2023-12-07T13:02:56;25.48;;;19.25;;
7571;SDS011;3827;49.928;8.548;2023-12-07T13:05:22;27.13;;;19.35;;
7571;SDS011;3827;49.928;8.548;2023-12-07T13:07:49;27.73;;;19.60;;
7571;SDS011;3827;49.928;8.548;2023-12-07T13:10:16;26.63;;;20.65;;
7571;SDS011;3827;49.928;8.548;2023-12-07T13:12:45;30.02;;;21.23;;
7571;SDS011;3827;49.928;8.548;2023-12-07T13:15:12;30.47;;;21.50;;
7571;SDS011;3827;49.928;8.548;2023-12-07T13:17:39;28.42;;;20.20;;
7571;SDS011;3827;49.928;8.548;2023-12-07T13:20:06;30.05;;;21.02;;
7571;SDS011;3827;49.928;8.548;2023-12-07T13:22:35;27.05;;;19.30;;
7571;SDS011;3827;49.928;8.548;2023-12-07T13:25:02;28.15;;;20.13;;
7571;SDS011;3827;49.928;8.548;2023-12-07T13:27:30;28.20;;;19.73;;
7571;SDS011;3827;49.928;8.548;2023-12-07T13:29:59;27.23;;;19.30;;
7571;SDS011;3827;49.928;8.548;2023-12-07T13:32:26;29.83;;;20.00;;
7571;SDS011;3827;49.928;8.548;2023-12-07T13:34:53;29.95;;;21.23;;
7571;SDS011;3827;49.928;8.548;2023-12-07T13:37:20;28.00;;;19.65;;
7571;SDS011;3827;49.928;8.548;2023-12-07T13:39:47;32.13;;;21.23;;
7571;SDS011;3827;49.928;8.548;2023-12-07T13:42:18;31.45;;;20.50;;
7571;SDS011;3827;49.928;8.548;2023-12-07T13:44:45;30.70;;;20.73;;
7571;SDS011;3827;49.928;8.548;2023-12-07T13:47:15;30.85;;;20.40;;
7571;SDS011;3827;49.928;8.548;2023-12-07T13:49:45;30.13;;;20.80;;
7571;SDS011;3827;49.928;8.548;2023-12-07T13:52:12;32.08;;;21.20;;
7571;SDS011;3827;49.928;8.548;2023-12-07T13:54:41;32.05;;;22.13;;
7571;SDS011;3827;49.928;8.548;2023-12-07T13:57:08;34.13;;;21.63;;
7571;SDS011;3827;49.928;8.548;2023-12-07T13:59:35;33.90;;;22.00;;
7571;SDS011;3827;49.928;8.548;2023-12-07T14:02:03;34.30;;;22.17;;
7571;SDS011;3827;49.928;8.548;2023-12-07T14:04:31;44.25;;;27.02;;
7571;SDS011;3827;49.928;8.548;2023-12-07T14:07:06;49.90;;;31.03;;
7571;SDS011;3827;49.928;8.548;2023-12-07T14:09:34;47.03;;;29.45;;
7571;SDS011;3827;49.928;8.548;2023-12-07T14:12:00;40.35;;;26.17;;
7571;SDS011;3827;49.928;8.548;2023-12-07T14:14:27;35.58;;;23.55;;
7571;SDS011;3827;49.928;8.548;2023-12-07T14:16:54;44.72;;;28.80;;
7571;SDS011;3827;49.928;8.548;2023-12-07T14:19:21;33.28;;;21.50;;
7571;SDS011;3827;49.928;8.548;2023-12-07T14:21:49;35.10;;;21.42;;
7571;SDS011;3827;49.928;8.548;2023-12-07T14:24:16;38.22;;;24.45;;
7571;SDS011;3827;49.928;8.548;2023-12-07T14:26:43;35.03;;;22.75;;
7571;SDS011;3827;49.928;8.548;2023-12-07T14:29:09;34.63;;;22.80;;
7571;SDS011;3827;49.928;8.548;2023-12-07T14:31:39;39.22;;;24.20;;
7571;SDS011;3827;49.928;8.548;2023-12-07T14:34:06;42.63;;;24.75;;
7571;SDS011;3827;49.928;8.548;2023-12-07T14:36:33;37.25;;;22.50;;
7571;SDS011;3827;49.928;8.548;2023-12-07T14:39:01;38.35;;;21.92;;
7571;SDS011;3827;49.928;8.548;2023-12-07T14:41:31;35.05;;;21.40;;
7571;SDS011;3827;49.928;8.548;2023-12-07T14:43:58;37.55;;;22.88;;
7571;SDS011;3827;49.928;8.548;2023-12-07T14:46:25;35.28;;;23.50;;
7571;SDS011;3827;49.928;8.548;2023-12-07T14:48:52;35.03;;;23.95;;
7571;SDS011;3827;49.928;8.548;2023-12-07T14:51:19;35.47;;;24.52;;
7571;SDS011;3827;49.928;8.548;2023-12-07T14:53:46;35.85;;;23.33;;